sensor_id;sensor_type;location;lat;lon;timestamp;pressure;altitude;pressure_sealevel;temperature;humidity
50057;BME280;36875;49.468;11.200;2023-04-15T00:00:06;96895.63;;;20.38;41.64
50057;BME280;36875;49.468;11.200;2023-04-15T00:02:31;96902.59;;;20.35;41.60
50057;BME280;36875;49.468;11.200;2023-04-15T00:04:57;96905.31;;;20.35;41.68
50057;BME280;36875;49.468;11.200;2023-04-15T00:07:22;96902.91;;;20.34;41.71
50057;BME280;36875;49.468;11.200;2023-04-15T00:09:49;96893.16;;;20.33;42.00
50057;BME280;36875;49.468;11.200;2023-04-15T00:12:19;96896.22;;;20.31;41.69
50057;BME280;36875;49.468;11.200;2023-04-15T00:14:44;96895.38;;;20.31;41.74
50057;BME280;36875;49.468;11.200;2023-04-15T00:17:10;96896.53;;;20.30;41.80
50057;BME280;36875;49.468;11.200;2023-04-15T00:19:38;96892.19;;;20.29;41.65
50057;BME280;36875;49.468;11.200;2023-04-15T00:22:05;96896.09;;;20.28;41.71
50057;BME280;36875;49.468;11.200;2023-04-15T00:24:30;96894.47;;;20.27;41.55
50057;BME280;36875;49.468;11.200;2023-04-15T00:26:58;96883.53;;;20.27;41.70
50057;BME280;36875;49.468;11.200;2023-04-15T00:29:24;96875.44;;;20.18;41.77
50057;BME280;36875;49.468;11.200;2023-04-15T00:31:49;96891.94;;;20.21;41.63
50057;BME280;36875;49.468;11.200;2023-04-15T00:34:15;96880.56;;;20.19;41.52
50057;BME280;36875;49.468;11.200;2023-04-15T00:36:40;96879.13;;;20.22;41.59
50057;BME280;36875;49.468;11.200;2023-04-15T00:39:06;96877.50;;;20.21;41.85
50057;BME280;36875;49.468;11.200;2023-04-15T00:41:31;96867.59;;;20.16;41.59
50057;BME280;36875;49.468;11.200;2023-04-15T00:44:00;96881.72;;;20.18;41.55
50057;BME280;36875;49.468;11.200;2023-04-15T00:46:27;96877.38;;;20.17;41.86
50057;BME280;36875;49.468;11.200;2023-04-15T00:48:54;96873.06;;;20.16;41.76
50057;BME280;36875;49.468;11.200;2023-04-15T00:51:19;96869.50;;;20.16;41.65
50057;BME280;36875;49.468;11.200;2023-04-15T00:53:45;96860.88;;;20.14;41.71
50057;BME280;36875;49.468;11.200;2023-04-15T00:56:10;96854.59;;;20.13;41.55
50057;BME280;36875;49.468;11.200;2023-04-15T00:58:36;96851.88;;;20.13;41.82
50057;BME280;36875;49.468;11.200;2023-04-15T01:01:03;96853.38;;;20.11;41.48
50057;BME280;36875;49.468;11.200;2023-04-15T01:03:29;96864.28;;;20.11;41.62
50057;BME280;36875;49.468;11.200;2023-04-15T01:05:55;96848.22;;;20.09;41.49
50057;BME280;36875;49.468;11.200;2023-04-15T01:08:25;96861.06;;;20.09;41.76
50057;BME280;36875;49.468;11.200;2023-04-15T01:10:51;96851.63;;;20.06;41.55
50057;BME280;36875;49.468;11.200;2023-04-15T01:13:18;96852.41;;;20.07;41.68
50057;BME280;36875;49.468;11.200;2023-04-15T01:15:44;96860.94;;;20.05;41.73
50057;BME280;36875;49.468;11.200;2023-04-15T01:18:11;96859.38;;;20.04;41.86
50057;BME280;36875;49.468;11.200;2023-04-15T01:20:37;96851.16;;;20.04;41.75
50057;BME280;36875;49.468;11.200;2023-04-15T01:23:03;96850.72;;;20.02;41.48
50057;BME280;36875;49.468;11.200;2023-04-15T01:25:40;96840.00;;;19.97;41.29
50057;BME280;36875;49.468;11.200;2023-04-15T01:28:06;96829.41;;;19.95;41.49
50057;BME280;36875;49.468;11.200;2023-04-15T01:30:33;96847.53;;;20.00;41.35
50057;BME280;36875;49.468;11.200;2023-04-15T01:32:59;96835.00;;;19.99;41.55
50057;BME280;36875;49.468;11.200;2023-04-15T01:35:25;96840.78;;;19.97;41.49
50057;BME280;36875;49.468;11.200;2023-04-15T01:37:51;96836.16;;;19.98;41.70
50057;BME280;36875;49.468;11.200;2023-04-15T01:40:18;96836.47;;;19.96;41.35
50057;BME280;36875;49.468;11.200;2023-04-15T01:42:46;96832.13;;;19.95;41.74
50057;BME280;36875;49.468;11.200;2023-04-15T01:45:11;96822.25;;;19.91;41.52
50057;BME280;36875;49.468;11.200;2023-04-15T01:47:38;96834.06;;;19.95;41.85
50057;BME280;36875;49.468;11.200;2023-04-15T01:50:05;96832.47;;;19.94;41.36
50057;BME280;36875;49.468;11.200;2023-04-15T01:52:31;96825.31;;;19.89;41.53
50057;BME280;36875;49.468;11.200;2023-04-15T01:54:56;96838.25;;;19.92;41.40
50057;BME280;36875;49.468;11.200;2023-04-15T01:57:22;96828.50;;;19.91;41.67
50057;BME280;36875;49.468;11.200;2023-04-15T01:59:48;96837.00;;;19.90;41.84
50057;BME280;36875;49.468;11.200;2023-04-15T02:02:14;96839.75;;;19.90;41.68
50057;BME280;36875;49.468;11.200;2023-04-15T02:04:40;96836.22;;;19.89;41.54
50057;BME280;36875;49.468;11.200;2023-04-15T02:07:05;96829.16;;;19.88;41.61
50057;BME280;36875;49.468;11.200;2023-04-15T02:09:31;96828.22;;;19.84;41.51
50057;BME280;36875;49.468;11.200;2023-04-15T02:11:56;96830.63;;;19.86;41.70
50057;BME280;36875;49.468;11.200;2023-04-15T02:14:22;96837.22;;;19.84;41.62
50057;BME280;36875;49.468;11.200;2023-04-15T02:16:49;96822.66;;;19.80;41.52
50057;BME280;36875;49.468;11.200;2023-04-15T02:19:14;96838.38;;;19.83;41.50
50057;BME280;36875;49.468;11.200;2023-04-15T02:21:40;96832.09;;;19.83;41.73
50057;BME280;36875;49.468;11.200;2023-04-15T02:24:05;96831.28;;;19.82;41.60
50057;BME280;36875;49.468;11.200;2023-04-15T02:26:31;96842.53;;;19.81;41.20
50057;BME280;36875;49.468;11.200;2023-04-15T02:28:57;96838.25;;;19.80;41.42
50057;BME280;36875;49.468;11.200;2023-04-15T02:31:23;96834.69;;;19.79;41.46
50057;BME280;36875;49.468;11.200;2023-04-15T02:33:50;96827.19;;;19.76;41.44
50057;BME280;36875;49.468;11.200;2023-04-15T02:36:16;96834.22;;;19.77;41.33
50057;BME280;36875;49.468;11.200;2023-04-15T02:38:41;96840.06;;;19.76;41.54
50057;BME280;36875;49.468;11.200;2023-04-15T02:41:08;96844.69;;;19.75;41.36
50057;BME280;36875;49.468;11.200;2023-04-15T02:43:33;96844.69;;;19.75;41.47
50057;BME280;36875;49.468;11.200;2023-04-15T02:45:59;96840.38;;;19.74;41.29
50057;BME280;36875;49.468;11.200;2023-04-15T02:48:24;96835.25;;;19.73;41.47
50057;BME280;36875;49.468;11.200;2023-04-15T02:50:51;96838.78;;;19.73;41.31
50057;BME280;36875;49.468;11.200;2023-04-15T02:53:17;96832.53;;;19.73;41.30
50057;BME280;36875;49.468;11.200;2023-04-15T02:55:44;96833.59;;;19.72;41.30
50057;BME280;36875;49.468;11.200;2023-04-15T02:58:09;96827.56;;;19.66;41.34
50057;BME280;36875;49.468;11.200;2023-04-15T03:00:35;96820.16;;;19.67;41.30
50057;BME280;36875;49.468;11.200;2023-04-15T03:03:01;96824.50;;;19.68;41.34
50057;BME280;36875;49.468;11.200;2023-04-15T03:05:27;96832.38;;;19.69;41.29
50057;BME280;36875;49.468;11.200;2023-04-15T03:07:54;96824.84;;;19.66;41.38
50057;BME280;36875;49.468;11.200;2023-04-15T03:10:20;96817.78;;;19.65;41.38
50057;BME280;36875;49.468;11.200;2023-04-15T03:12:46;96836.91;;;19.65;41.47
50057;BME280;36875;49.468;11.200;2023-04-15T03:15:12;96831.44;;;19.65;41.01
50057;BME280;36875;49.468;11.200;2023-04-15T03:17:37;96832.22;;;19.65;40.96
50057;BME280;36875;49.468;11.200;2023-04-15T03:20:04;96829.84;;;19.64;41.44
50057;BME280;36875;49.468;11.200;2023-04-15T03:22:30;96830.97;;;19.63;41.34
50057;BME280;36875;49.468;11.200;2023-04-15T03:24:57;96830.50;;;19.61;41.48
50057;BME280;36875;49.468;11.200;2023-04-15T03:27:23;96820.25;;;19.58;41.31
50057;BME280;36875;49.468;11.200;2023-04-15T03:29:48;96823.78;;;19.58;40.91
50057;BME280;36875;49.468;11.200;2023-04-15T03:32:14;96822.66;;;19.59;41.34
50057;BME280;36875;49.468;11.200;2023-04-15T03:34:39;96822.66;;;19.59;41.48
50057;BME280;36875;49.468;11.200;2023-04-15T03:37:05;96817.88;;;19.56;41.41
50057;BME280;36875;49.468;11.200;2023-04-15T03:39:31;96831.19;;;19.58;41.00
50057;BME280;36875;49.468;11.200;2023-04-15T03:41:58;96829.56;;;19.57;41.13
50057;BME280;36875;49.468;11.200;2023-04-15T03:44:25;96829.25;;;19.58;41.17
50057;BME280;36875;49.468;11.200;2023-04-15T03:46:50;96829.56;;;19.57;41.32
50057;BME280;36875;49.468;11.200;2023-04-15T03:49:16;96838.91;;;19.56;41.21
50057;BME280;36875;49.468;11.200;2023-04-15T03:51:41;96840.03;;;19.55;41.23
50057;BME280;36875;49.468;11.200;2023-04-15T03:54:07;96833.78;;;19.54;41.18
50057;BME280;36875;49.468;11.200;2023-04-15T03:56:32;96833.78;;;19.54;40.96
50057;BME280;36875;49.468;11.200;2023-04-15T03:58:59;96835.72;;;19.54;40.85
50057;BME280;36875;49.468;11.200;2023-04-15T04:01:24;96834.09;;;19.53;40.78
50057;BME280;36875;49.468;11.200;2023-04-15T04:03:50;96836.84;;;19.53;41.16
50057;BME280;36875;49.468;11.200;2023-04-15T04:06:15;96826.56;;;19.50;41.32
50057;BME280;36875;49.468;11.200;2023-04-15T04:08:41;96826.25;;;19.51;40.97
50057;BME280;36875;49.468;11.200;2023-04-15T04:11:06;96830.91;;;19.51;41.09
50057;BME280;36875;49.468;11.200;2023-04-15T04:13:34;96834.75;;;19.50;40.86
50057;BME280;36875;49.468;11.200;2023-04-15T04:16:01;96836.38;;;19.51;40.88
50057;BME280;36875;49.468;11.200;2023-04-15T04:18:28;96826.56;;;19.50;41.02
50057;BME280;36875;49.468;11.200;2023-04-15T04:20:54;96833.97;;;19.49;40.88
50057;BME280;36875;49.468;11.200;2023-04-15T04:23:20;96834.31;;;19.48;41.00
50057;BME280;36875;49.468;11.200;2023-04-15T04:25:45;96831.56;;;19.48;40.94
50057;BME280;36875;49.468;11.200;2023-04-15T04:28:11;96826.78;;;19.44;41.00
50057;BME280;36875;49.468;11.200;2023-04-15T04:30:36;96840.09;;;19.46;41.12
50057;BME280;36875;49.468;11.200;2023-04-15T04:33:03;96837.69;;;19.44;40.96
50057;BME280;36875;49.468;11.200;2023-04-15T04:35:29;96832.59;;;19.43;40.86
50057;BME280;36875;49.468;11.200;2023-04-15T04:37:55;96839.97;;;19.42;40.67
50057;BME280;36875;49.468;11.200;2023-04-15T04:40:20;96833.72;;;19.42;40.62
50057;BME280;36875;49.468;11.200;2023-04-15T04:42:46;96838.38;;;19.41;41.01
50057;BME280;36875;49.468;11.200;2023-04-15T04:45:11;96845.78;;;19.41;40.71
50057;BME280;36875;49.468;11.200;2023-04-15T04:47:37;96846.09;;;19.39;41.10
50057;BME280;36875;49.468;11.200;2023-04-15T04:50:08;96840.19;;;19.37;40.63
50057;BME280;36875;49.468;11.200;2023-04-15T04:52:34;96846.88;;;19.40;40.52
50057;BME280;36875;49.468;11.200;2023-04-15T04:55:00;96842.56;;;19.39;40.60
50057;BME280;36875;49.468;11.200;2023-04-15T04:57:25;96847.22;;;19.38;41.11
50057;BME280;36875;49.468;11.200;2023-04-15T04:59:51;96841.28;;;19.36;40.71
50057;BME280;36875;49.468;11.200;2023-04-15T05:02:16;96842.91;;;19.37;40.75
50057;BME280;36875;49.468;11.200;2023-04-15T05:04:42;96840.50;;;19.36;40.74
50057;BME280;36875;49.468;11.200;2023-04-15T05:07:09;96845.97;;;19.36;40.57
50057;BME280;36875;49.468;11.200;2023-04-15T05:09:35;96845.16;;;19.35;40.92
50057;BME280;36875;49.468;11.200;2023-04-15T05:12:01;96844.69;;;19.33;40.36
50057;BME280;36875;49.468;11.200;2023-04-15T05:14:26;96844.34;;;19.35;40.48
50057;BME280;36875;49.468;11.200;2023-04-15T05:16:52;96848.22;;;19.34;40.50
50057;BME280;36875;49.468;11.200;2023-04-15T05:19:17;96846.94;;;19.31;40.70
50057;BME280;36875;49.468;11.200;2023-04-15T05:21:42;96851.28;;;19.32;40.46
50057;BME280;36875;49.468;11.200;2023-04-15T05:24:09;96846.47;;;19.29;40.48
50057;BME280;36875;49.468;11.200;2023-04-15T05:26:35;96857.84;;;19.31;40.87
50057;BME280;36875;49.468;11.200;2023-04-15T05:29:01;96855.47;;;19.30;40.40
50057;BME280;36875;49.468;11.200;2023-04-15T05:31:26;96857.41;;;19.29;40.71
50057;BME280;36875;49.468;11.200;2023-04-15T05:33:52;96859.00;;;19.30;40.75
50057;BME280;36875;49.468;11.200;2023-04-15T05:36:17;96860.44;;;19.27;40.89
50057;BME280;36875;49.468;11.200;2023-04-15T05:38:43;96860.44;;;19.27;40.63
50057;BME280;36875;49.468;11.200;2023-04-15T05:41:09;96865.13;;;19.27;40.75
50057;BME280;36875;49.468;11.200;2023-04-15T05:43:35;96862.06;;;19.29;40.56
50057;BME280;36875;49.468;11.200;2023-04-15T05:46:01;96863.84;;;19.24;40.60
50057;BME280;36875;49.468;11.200;2023-04-15T05:48:26;96866.22;;;19.26;40.80
50057;BME280;36875;49.468;11.200;2023-04-15T05:50:51;96872.03;;;19.24;40.62
50057;BME280;36875;49.468;11.200;2023-04-15T05:53:17;96869.31;;;19.24;40.28
50057;BME280;36875;49.468;11.200;2023-04-15T05:55:43;96871.22;;;19.24;40.43
50057;BME280;36875;49.468;11.200;2023-04-15T05:58:09;96870.44;;;19.23;40.50
50057;BME280;36875;49.468;11.200;2023-04-15T06:00:35;96866.44;;;19.21;40.68
50057;BME280;36875;49.468;11.200;2023-04-15T06:03:01;96871.09;;;19.20;40.41
50057;BME280;36875;49.468;11.200;2023-04-15T06:05:26;96872.69;;;19.21;40.44
50057;BME280;36875;49.468;11.200;2023-04-15T06:07:52;96874.97;;;19.19;40.29
50057;BME280;36875;49.468;11.200;2023-04-15T06:10:18;96869.19;;;19.21;40.27
50057;BME280;36875;49.468;11.200;2023-04-15T06:12:43;96868.34;;;19.20;40.43
50057;BME280;36875;49.468;11.200;2023-04-15T06:15:10;96880.09;;;19.21;40.61
50057;BME280;36875;49.468;11.200;2023-04-15T06:17:36;96871.44;;;19.19;40.29
50057;BME280;36875;49.468;11.200;2023-04-15T06:20:02;96879.63;;;19.19;40.70
50057;BME280;36875;49.468;11.200;2023-04-15T06:22:28;96875.59;;;19.16;40.49
50057;BME280;36875;49.468;11.200;2023-04-15T06:24:53;96880.28;;;19.16;40.68
50057;BME280;36875;49.468;11.200;2023-04-15T06:27:19;96878.00;;;19.18;40.53
50057;BME280;36875;49.468;11.200;2023-04-15T06:29:44;96877.53;;;19.16;40.74
50057;BME280;36875;49.468;11.200;2023-04-15T06:32:11;96871.94;;;19.12;40.66
50057;BME280;36875;49.468;11.200;2023-04-15T06:34:37;96884.94;;;19.15;40.38
50057;BME280;36875;49.468;11.200;2023-04-15T06:37:02;96874.03;;;19.15;40.70
50057;BME280;36875;49.468;11.200;2023-04-15T06:39:28;96880.94;;;19.13;40.35
50057;BME280;36875;49.468;11.200;2023-04-15T06:41:53;96880.94;;;19.13;40.33
50057;BME280;36875;49.468;11.200;2023-04-15T06:44:19;96883.66;;;19.13;40.74
50057;BME280;36875;49.468;11.200;2023-04-15T06:46:44;96883.97;;;19.11;40.16
50057;BME280;36875;49.468;11.200;2023-04-15T06:49:11;96885.59;;;19.12;40.49
50057;BME280;36875;49.468;11.200;2023-04-15T06:51:37;96883.97;;;19.11;40.42
50057;BME280;36875;49.468;11.200;2023-04-15T06:54:03;96878.84;;;19.10;40.16
50057;BME280;36875;49.468;11.200;2023-04-15T06:56:30;96877.59;;;19.07;40.50
50057;BME280;36875;49.468;11.200;2023-04-15T06:58:56;96876.13;;;19.10;40.22
50057;BME280;36875;49.468;11.200;2023-04-15T07:01:21;96874.53;;;19.09;40.35
50057;BME280;36875;49.468;11.200;2023-04-15T07:03:47;96878.38;;;19.07;40.45
50057;BME280;36875;49.468;11.200;2023-04-15T07:06:14;96882.25;;;19.06;40.70
50057;BME280;36875;49.468;11.200;2023-04-15T07:08:39;96885.31;;;19.05;40.24
50057;BME280;36875;49.468;11.200;2023-04-15T07:11:05;96887.72;;;19.06;40.42
50057;BME280;36875;49.468;11.200;2023-04-15T07:13:31;96883.38;;;19.05;40.67
50057;BME280;36875;49.468;11.200;2023-04-15T07:15:57;96886.09;;;19.05;40.42
50057;BME280;36875;49.468;11.200;2023-04-15T07:18:23;96886.09;;;19.05;40.70
50057;BME280;36875;49.468;11.200;2023-04-15T07:20:48;96877.44;;;19.03;41.01
50057;BME280;36875;49.468;11.200;2023-04-15T07:23:15;96880.97;;;19.04;40.88
50057;BME280;36875;49.468;11.200;2023-04-15T07:25:40;96884.50;;;19.04;41.06
50057;BME280;36875;49.468;11.200;2023-04-15T07:28:06;96885.94;;;19.02;40.99
50057;BME280;36875;49.468;11.200;2023-04-15T07:30:31;96890.63;;;19.01;40.82
50057;BME280;36875;49.468;11.200;2023-04-15T07:32:57;96893.03;;;19.03;40.96
50057;BME280;36875;49.468;11.200;2023-04-15T07:35:23;96890.28;;;19.03;41.26
50057;BME280;36875;49.468;11.200;2023-04-15T07:37:49;96896.06;;;19.01;41.14
50057;BME280;36875;49.468;11.200;2023-04-15T07:40:17;96895.28;;;19.01;41.54
50057;BME280;36875;49.468;11.200;2023-04-15T07:42:42;96897.69;;;19.02;41.44
50057;BME280;36875;49.468;11.200;2023-04-15T07:45:09;96889.50;;;19.02;42.17
50057;BME280;36875;49.468;11.200;2023-04-15T07:47:34;96902.00;;;19.03;41.80
50057;BME280;36875;49.468;11.200;2023-04-15T07:50:00;96896.06;;;19.01;41.99
50057;BME280;36875;49.468;11.200;2023-04-15T07:52:26;96892.22;;;19.02;42.29
50057;BME280;36875;49.468;11.200;2023-04-15T07:54:52;96891.72;;;19.00;42.08
50057;BME280;36875;49.468;11.200;2023-04-15T07:57:19;96896.88;;;19.02;42.20
50057;BME280;36875;49.468;11.200;2023-04-15T07:59:44;96890.63;;;19.01;42.11
50057;BME280;36875;49.468;11.200;2023-04-15T08:02:10;96892.22;;;19.02;42.50
50057;BME280;36875;49.468;11.200;2023-04-15T08:04:35;96898.78;;;19.01;42.40
50057;BME280;36875;49.468;11.200;2023-04-15T08:07:01;96897.69;;;19.02;42.68
50057;BME280;36875;49.468;11.200;2023-04-15T08:09:27;96892.56;;;19.01;42.64
50057;BME280;36875;49.468;11.200;2023-04-15T08:11:53;96892.88;;;18.99;43.00
50057;BME280;36875;49.468;11.200;2023-04-15T08:14:20;96897.00;;;19.05;43.04
50057;BME280;36875;49.468;11.200;2023-04-15T08:16:45;96900.19;;;19.07;43.36
50057;BME280;36875;49.468;11.200;2023-04-15T08:19:11;96909.81;;;19.14;43.13
50057;BME280;36875;49.468;11.200;2023-04-15T08:21:36;96898.22;;;19.17;43.55
50057;BME280;36875;49.468;11.200;2023-04-15T08:24:02;96902.84;;;19.25;43.81
50057;BME280;36875;49.468;11.200;2023-04-15T08:26:28;96906.03;;;19.27;43.72
50057;BME280;36875;49.468;11.200;2023-04-15T08:28:53;96898.63;;;19.27;43.69
50057;BME280;36875;49.468;11.200;2023-04-15T08:31:20;96910.63;;;19.35;43.59
50057;BME280;36875;49.468;11.200;2023-04-15T08:33:46;96909.19;;;19.38;43.63
50057;BME280;36875;49.468;11.200;2023-04-15T08:36:12;96911.25;;;19.41;43.64
50057;BME280;36875;49.468;11.200;2023-04-15T08:38:38;96914.44;;;19.43;43.96
50057;BME280;36875;49.468;11.200;2023-04-15T08:41:08;96912.50;;;19.43;43.70
50057;BME280;36875;49.468;11.200;2023-04-15T08:43:40;96907.84;;;19.44;44.03
50057;BME280;36875;49.468;11.200;2023-04-15T08:46:11;96920.03;;;19.47;43.72
50057;BME280;36875;49.468;11.200;2023-04-15T08:48:38;96921.16;;;19.45;44.08
50057;BME280;36875;49.468;11.200;2023-04-15T08:51:05;96915.69;;;19.45;44.44
50057;BME280;36875;49.468;11.200;2023-04-15T08:53:31;96921.81;;;19.42;44.28
50057;BME280;36875;49.468;11.200;2023-04-15T08:55:59;96923.88;;;19.45;44.37
50057;BME280;36875;49.468;11.200;2023-04-15T08:58:28;96919.69;;;19.48;44.50
50057;BME280;36875;49.468;11.200;2023-04-15T09:00:55;96923.56;;;19.47;44.36
50057;BME280;36875;49.468;11.200;2023-04-15T09:03:21;96919.53;;;19.44;44.24
50057;BME280;36875;49.468;11.200;2023-04-15T09:05:49;96926.00;;;19.40;44.08
50057;BME280;36875;49.468;11.200;2023-04-15T09:08:15;96936.34;;;19.25;43.91
50057;BME280;36875;49.468;11.200;2023-04-15T09:10:40;96934.94;;;18.90;42.75
50057;BME280;36875;49.468;11.200;2023-04-15T09:13:06;96937.72;;;19.11;42.82
50057;BME280;36875;49.468;11.200;2023-04-15T09:15:32;96934.97;;;19.40;41.76
50057;BME280;36875;49.468;11.200;2023-04-15T09:17:57;96928.00;;;19.81;40.54
50057;BME280;36875;49.468;11.200;2023-04-15T09:20:23;96941.09;;;20.09;40.15
50057;BME280;36875;49.468;11.200;2023-04-15T09:22:50;96936.47;;;20.22;40.01
50057;BME280;36875;49.468;11.200;2023-04-15T09:25:28;96939.09;;;20.31;39.86
50057;BME280;36875;49.468;11.200;2023-04-15T09:27:56;96939.34;;;20.26;39.89
50057;BME280;36875;49.468;11.200;2023-04-15T09:30:22;96943.09;;;20.00;40.49
50057;BME280;36875;49.468;11.200;2023-04-15T09:32:49;96940.22;;;19.75;40.90
50057;BME280;36875;49.468;11.200;2023-04-15T09:35:16;96944.00;;;19.62;41.45
50057;BME280;36875;49.468;11.200;2023-04-15T09:37:41;96948.19;;;19.59;41.31
50057;BME280;36875;49.468;11.200;2023-04-15T09:40:09;96950.13;;;19.59;41.56
50057;BME280;36875;49.468;11.200;2023-04-15T09:42:35;96942.59;;;19.56;41.56
50057;BME280;36875;49.468;11.200;2023-04-15T09:45:07;96948.34;;;19.63;41.83
50057;BME280;36875;49.468;11.200;2023-04-15T09:47:33;96949.91;;;19.64;41.58
50057;BME280;36875;49.468;11.200;2023-04-15T09:49:59;96961.78;;;19.68;41.91
50057;BME280;36875;49.468;11.200;2023-04-15T09:52:25;96958.84;;;19.52;42.35
50057;BME280;36875;49.468;11.200;2023-04-15T09:54:52;96967.81;;;19.53;42.04
50057;BME280;36875;49.468;11.200;2023-04-15T09:57:23;96963.47;;;19.52;41.70
50057;BME280;36875;49.468;11.200;2023-04-15T09:59:49;96964.94;;;19.49;41.77
50057;BME280;36875;49.468;11.200;2023-04-15T10:02:14;96960.28;;;19.50;42.04
50057;BME280;36875;49.468;11.200;2023-04-15T10:04:40;96971.47;;;19.57;42.27
50057;BME280;36875;49.468;11.200;2023-04-15T10:07:07;96970.81;;;19.60;42.16
50057;BME280;36875;49.468;11.200;2023-04-15T10:09:34;96970.88;;;19.51;42.22
50057;BME280;36875;49.468;11.200;2023-04-15T10:12:00;96967.69;;;19.49;41.91
50057;BME280;36875;49.468;11.200;2023-04-15T10:14:27;96977.13;;;19.52;42.00
50057;BME280;36875;49.468;11.200;2023-04-15T10:16:56;96972.03;;;19.50;42.39
50057;BME280;36875;49.468;11.200;2023-04-15T10:19:26;96978.28;;;19.51;41.99
50057;BME280;36875;49.468;11.200;2023-04-15T10:21:54;96977.34;;;19.47;42.17
50057;BME280;36875;49.468;11.200;2023-04-15T10:24:20;96971.06;;;19.46;42.27
50057;BME280;36875;49.468;11.200;2023-04-15T10:26:47;96972.03;;;19.50;42.62
50057;BME280;36875;49.468;11.200;2023-04-15T10:29:12;96976.66;;;19.50;42.64
50057;BME280;36875;49.468;11.200;2023-04-15T10:31:40;96971.34;;;19.53;42.48
50057;BME280;36875;49.468;11.200;2023-04-15T10:34:05;96967.50;;;19.54;42.63
50057;BME280;36875;49.468;11.200;2023-04-15T10:36:31;96965.41;;;19.51;42.62
50057;BME280;36875;49.468;11.200;2023-04-15T10:38:57;96973.75;;;19.55;43.02
50057;BME280;36875;49.468;11.200;2023-04-15T10:41:24;96975.00;;;19.57;42.85
50057;BME280;36875;49.468;11.200;2023-04-15T10:43:52;96977.41;;;19.59;42.83
50057;BME280;36875;49.468;11.200;2023-04-15T10:46:20;96973.09;;;19.58;43.32
50057;BME280;36875;49.468;11.200;2023-04-15T10:48:48;96975.81;;;19.58;43.02
50057;BME280;36875;49.468;11.200;2023-04-15T10:51:14;96975.00;;;19.57;43.11
50057;BME280;36875;49.468;11.200;2023-04-15T10:53:42;96975.28;;;19.64;43.21
50057;BME280;36875;49.468;11.200;2023-04-15T10:56:09;96969.88;;;19.86;42.51
50057;BME280;36875;49.468;11.200;2023-04-15T10:58:40;96971.91;;;19.89;42.20
50057;BME280;36875;49.468;11.200;2023-04-15T11:01:06;96973.00;;;19.75;42.86
50057;BME280;36875;49.468;11.200;2023-04-15T11:03:36;96971.25;;;19.71;42.91
50057;BME280;36875;49.468;11.200;2023-04-15T11:06:05;96968.84;;;19.69;42.71
50057;BME280;36875;49.468;11.200;2023-04-15T11:08:52;96976.25;;;19.69;42.60
50057;BME280;36875;49.468;11.200;2023-04-15T11:11:17;96980.41;;;19.66;43.11
50057;BME280;36875;49.468;11.200;2023-04-15T11:13:47;96983.31;;;19.61;43.00
50057;BME280;36875;49.468;11.200;2023-04-15T11:16:13;96992.66;;;19.60;43.13
50057;BME280;36875;49.468;11.200;2023-04-15T11:18:39;96989.38;;;19.67;42.96
50057;BME280;36875;49.468;11.200;2023-04-15T11:21:06;96989.06;;;19.68;42.80
50057;BME280;36875;49.468;11.200;2023-04-15T11:23:35;96987.16;;;19.69;42.49
50057;BME280;36875;49.468;11.200;2023-04-15T11:26:03;96993.97;;;19.83;42.23
50057;BME280;36875;49.468;11.200;2023-04-15T11:28:31;96987.00;;;19.95;42.19
50057;BME280;36875;49.468;11.200;2023-04-15T11:30:57;96999.63;;;19.99;42.01
50057;BME280;36875;49.468;11.200;2023-04-15T11:33:23;97008.50;;;19.96;42.38
50057;BME280;36875;49.468;11.200;2023-04-15T11:35:51;97002.59;;;19.94;41.96
50057;BME280;36875;49.468;11.200;2023-04-15T11:38:19;97002.91;;;19.93;42.59
50057;BME280;36875;49.468;11.200;2023-04-15T11:40:47;97005.44;;;19.98;42.59
50057;BME280;36875;49.468;11.200;2023-04-15T11:43:14;97002.72;;;19.98;42.59
50057;BME280;36875;49.468;11.200;2023-04-15T11:45:48;97000.44;;;20.00;42.64
50057;BME280;36875;49.468;11.200;2023-04-15T11:48:16;97007.38;;;19.97;42.44
50057;BME280;36875;49.468;11.200;2023-04-15T11:50:41;97003.38;;;19.95;42.39
50057;BME280;36875;49.468;11.200;2023-04-15T11:53:08;96997.91;;;19.95;42.76
50057;BME280;36875;49.468;11.200;2023-04-15T11:55:43;97001.09;;;19.97;42.65
50057;BME280;36875;49.468;11.200;2023-04-15T11:58:11;96999.75;;;20.03;42.66
50057;BME280;36875;49.468;11.200;2023-04-15T12:00:38;97013.69;;;19.89;42.93
50057;BME280;36875;49.468;11.200;2023-04-15T12:03:16;97013.69;;;19.89;42.52
50057;BME280;36875;49.468;11.200;2023-04-15T12:06:03;97004.81;;;19.92;42.41
50057;BME280;36875;49.468;11.200;2023-04-15T12:08:50;97003.38;;;19.95;42.34
50057;BME280;36875;49.468;11.200;2023-04-15T12:11:18;97010.22;;;20.01;42.57
50057;BME280;36875;49.468;11.200;2023-04-15T12:13:45;97015.50;;;20.06;42.17
50057;BME280;36875;49.468;11.200;2023-04-15T12:16:11;97014.44;;;19.98;42.50
50057;BME280;36875;49.468;11.200;2023-04-15T12:18:37;97015.59;;;19.89;42.67
50057;BME280;36875;49.468;11.200;2023-04-15T12:21:08;97028.78;;;19.87;42.70
50057;BME280;36875;49.468;11.200;2023-04-15T12:23:36;97027.69;;;19.88;42.43
50057;BME280;36875;49.468;11.200;2023-04-15T12:26:04;97036.66;;;19.88;42.51
50057;BME280;36875;49.468;11.200;2023-04-15T12:28:31;97031.19;;;19.88;42.45
50057;BME280;36875;49.468;11.200;2023-04-15T12:30:58;97037.44;;;19.89;42.75
50057;BME280;36875;49.468;11.200;2023-04-15T12:33:31;97040.81;;;19.94;42.49
50057;BME280;36875;49.468;11.200;2023-04-15T12:35:57;97040.06;;;20.27;41.72
50057;BME280;36875;49.468;11.200;2023-04-15T12:38:22;97045.53;;;20.48;41.35
50057;BME280;36875;49.468;11.200;2023-04-15T12:40:48;97048.06;;;20.53;40.96
50057;BME280;36875;49.468;11.200;2023-04-15T12:43:13;97049.75;;;20.25;41.79
50057;BME280;36875;49.468;11.200;2023-04-15T12:45:41;97044.47;;;20.19;41.99